Time;durP1;ratioP1;P1;durP2;ratioP2;P2;SDS_P1;SDS_P2;PMS_P1;PMS_P2;Temp;Humidity;BMP_temperature;BMP_pressure;BME280_temperature;BME280_humidity;BME280_pressure;Samples;Min_cycle;Max_cycle;Signal;HPM_P1;HPM_P2
2023/12/15 00:00:41;;;;;;;17.00;10.93;;;7.80;99.90;;;;;;5052154;28;20569;-73
2023/12/15 00:03:08;;;;;;;17.90;11.17;;;7.80;99.90;;;;;;5060992;28;20475;-73
2023/12/15 00:05:36;;;;;;;18.57;10.73;;;7.90;99.90;;;;;;5054637;28;20466;-73
2023/12/15 00:08:03;;;;;;;20.10;10.03;;;7.80;99.90;;;;;;5054998;28;20477;-73
2023/12/15 00:10:32;;;;;;;19.17;10.53;;;;;;;;;;5055284;28;20479;-73
2023/12/15 00:12:58;;;;;;;18.00;12.47;;;7.70;99.90;;;;;;5054721;28;21061;-73
2023/12/15 00:15:25;;;;;;;23.93;12.30;;;7.60;99.90;;;;;;5054816;28;20466;-73
2023/12/15 00:17:52;;;;;;;43.80;14.00;;;7.60;99.90;;;;;;5053800;28;21112;-73
2023/12/15 00:20:18;;;;;;;18.47;10.40;;;7.50;99.90;;;;;;5053034;28;20482;-73
2023/12/15 00:22:47;;;;;;;21.60;11.53;;;7.40;99.90;;;;;;5054492;28;21056;-73
2023/12/15 00:25:14;;;;;;;19.27;11.80;;;7.40;99.90;;;;;;5054390;28;20861;-72
2023/12/15 00:27:41;;;;;;;23.00;11.43;;;7.40;99.90;;;;;;5054355;28;20479;-73
2023/12/15 00:30:08;;;;;;;19.37;11.47;;;7.40;99.90;;;;;;5055278;28;20474;-73
2023/12/15 00:32:35;;;;;;;24.13;13.43;;;7.30;99.90;;;;;;5055362;28;20930;-73
2023/12/15 00:35:02;;;;;;;21.20;12.40;;;7.30;99.90;;;;;;5053170;28;20502;-73
2023/12/15 00:37:28;;;;;;;24.70;12.67;;;7.30;99.90;;;;;;5054158;28;20808;-73
2023/12/15 00:39:57;;;;;;;20.90;12.50;;;7.40;99.90;;;;;;5057558;28;20471;-73
2023/12/15 00:42:23;;;;;;;28.33;12.43;;;7.40;99.90;;;;;;5059631;28;20499;-73
2023/12/15 00:44:50;;;;;;;21.13;11.93;;;7.40;99.90;;;;;;5050484;28;20547;-73
2023/12/15 00:47:17;;;;;;;29.23;13.57;;;7.40;99.90;;;;;;5070589;28;20578;-75
2023/12/15 00:49:44;;;;;;;21.00;12.57;;;7.30;99.90;;;;;;5058440;28;20489;-73
2023/12/15 00:52:11;;;;;;;28.70;11.47;;;;;;;;;;5057446;28;20475;-73
2023/12/15 00:54:38;;;;;;;19.30;12.17;;;7.30;99.90;;;;;;5055310;28;20874;-73
2023/12/15 00:57:06;;;;;;;24.27;13.60;;;7.30;99.90;;;;;;5058918;28;20496;-73
2023/12/15 00:59:33;;;;;;;22.87;11.70;;;7.30;99.90;;;;;;5058461;28;20487;-73
2023/12/15 01:02:00;;;;;;;38.20;12.70;;;7.20;99.90;;;;;;5057941;28;20478;-73
2023/12/15 01:04:27;;;;;;;22.83;13.73;;;7.20;99.90;;;;;;5057527;28;20770;-73
2023/12/15 01:06:53;;;;;;;21.27;11.80;;;7.30;99.90;;;;;;5054232;28;20853;-73
2023/12/15 01:09:21;;;;;;;24.17;12.83;;;7.40;99.90;;;;;;5062859;28;20492;-72
2023/12/15 01:11:48;;;;;;;27.70;13.70;;;7.30;99.90;;;;;;5059316;28;20578;-73
2023/12/15 01:14:16;;;;;;;31.10;15.20;;;7.30;99.90;;;;;;5059483;28;20490;-73
2023/12/15 01:16:46;;;;;;;30.47;14.03;;;7.30;99.90;;;;;;5061903;28;20475;-72
2023/12/15 01:19:12;;;;;;;25.00;14.17;;;7.40;99.90;;;;;;5062077;28;20977;-73
2023/12/15 01:21:38;;;;;;;31.37;15.93;;;7.40;99.90;;;;;;5061867;28;20485;-73
2023/12/15 01:24:06;;;;;;;27.10;14.43;;;7.30;99.90;;;;;;5061363;28;20463;-73
2023/12/15 01:26:32;;;;;;;38.70;13.87;;;7.40;99.90;;;;;;5063559;28;20256;-72
2023/12/15 01:28:59;;;;;;;30.33;15.83;;;7.40;99.90;;;;;;5061019;28;20482;-72
2023/12/15 01:31:27;;;;;;;26.30;13.80;;;7.40;99.90;;;;;;5062978;28;20964;-73
2023/12/15 01:33:54;;;;;;;26.77;14.33;;;7.40;99.90;;;;;;5062912;28;20497;-72
2023/12/15 01:36:21;;;;;;;34.70;16.10;;;7.30;99.90;;;;;;5062479;28;20879;-73
2023/12/15 01:38:48;;;;;;;34.50;14.10;;;7.30;99.90;;;;;;5062265;28;20569;-72
2023/12/15 01:41:14;;;;;;;29.63;15.77;;;7.30;99.90;;;;;;5059718;28;20479;-72
2023/12/15 01:43:41;;;;;;;31.10;15.23;;;7.30;99.90;;;;;;5062873;28;21078;-72
2023/12/15 01:46:08;;;;;;;31.03;15.10;;;7.30;99.90;;;;;;5061211;28;20894;-72
2023/12/15 01:48:36;;;;;;;35.17;15.77;;;7.30;99.90;;;;;;5062228;28;20471;-72
2023/12/15 01:51:03;;;;;;;20.23;13.67;;;7.30;99.90;;;;;;5061122;28;20487;-73
2023/12/15 01:53:30;;;;;;;25.10;13.47;;;7.30;99.90;;;;;;5061940;28;20481;-72
2023/12/15 01:55:56;;;;;;;34.67;16.37;;;7.30;99.90;;;;;;5061259;28;21155;-72
2023/12/15 01:58:24;;;;;;;24.43;14.30;;;;;;;;;;5060644;28;20494;-72
2023/12/15 02:00:51;;;;;;;47.27;17.77;;;;;;;;;;5057725;28;20483;-72
2023/12/15 02:03:17;;;;;;;32.47;15.20;;;7.30;99.90;;;;;;5076893;28;21169;-72
2023/12/15 02:05:45;;;;;;;32.23;15.17;;;7.30;99.90;;;;;;5061760;28;20590;-72
2023/12/15 02:08:12;;;;;;;34.70;15.93;;;7.30;99.90;;;;;;5060948;28;20481;-72
2023/12/15 02:10:39;;;;;;;27.70;15.40;;;7.30;99.90;;;;;;5061164;28;20483;-72
2023/12/15 02:13:07;;;;;;;27.03;13.63;;;7.30;99.90;;;;;;5060010;28;20603;-72
2023/12/15 02:15:34;;;;;;;34.53;14.77;;;7.30;99.90;;;;;;5062244;28;20857;-72
2023/12/15 02:18:00;;;;;;;29.03;14.60;;;7.30;99.90;;;;;;5059962;28;20489;-72
2023/12/15 02:20:27;;;;;;;25.83;15.27;;;7.30;99.90;;;;;;5061339;28;20474;-72
2023/12/15 02:22:57;;;;;;;38.40;16.80;;;7.30;99.90;;;;;;5060758;28;20537;-72
2023/12/15 02:25:24;;;;;;;26.03;14.70;;;7.30;99.90;;;;;;5060933;28;20471;-72
2023/12/15 02:27:51;;;;;;;28.60;14.80;;;7.30;99.90;;;;;;5061137;28;20486;-72
2023/12/15 02:30:17;;;;;;;24.80;14.00;;;7.30;99.90;;;;;;5050372;28;20561;-72
2023/12/15 02:32:44;;;;;;;25.47;14.83;;;7.40;99.90;;;;;;5062046;28;20479;-72
2023/12/15 02:35:12;;;;;;;34.80;16.20;;;7.30;99.90;;;;;;5061465;28;20483;-72
2023/12/15 02:37:38;;;;;;;26.77;14.10;;;7.30;99.90;;;;;;5060269;28;20540;-72
2023/12/15 02:40:07;;;;;;;32.20;14.90;;;7.40;99.90;;;;;;5061578;28;20590;-72
2023/12/15 02:42:34;;;;;;;29.60;14.63;;;7.40;99.90;;;;;;5062025;28;20493;-72
2023/12/15 02:45:01;;;;;;;29.03;16.10;;;7.30;99.90;;;;;;5061670;28;20487;-72
2023/12/15 02:47:28;;;;;;;28.37;14.57;;;7.40;99.90;;;;;;5062513;28;20485;-72
2023/12/15 02:49:55;;;;;;;35.27;16.30;;;7.40;99.90;;;;;;5057291;28;20477;-72
2023/12/15 02:52:22;;;;;;;29.00;15.03;;;7.40;99.90;;;;;;5060972;28;20930;-72
2023/12/15 02:54:48;;;;;;;29.07;14.37;;;7.40;99.90;;;;;;5060606;28;20475;-71
2023/12/15 02:57:17;;;;;;;34.67;15.27;;;7.40;99.90;;;;;;5059759;28;20474;-72
2023/12/15 02:59:43;;;;;;;37.97;16.37;;;7.40;99.90;;;;;;5061545;28;20479;-72
2023/12/15 03:02:10;;;;;;;27.07;15.43;;;7.40;99.90;;;;;;5061163;28;20487;-71
2023/12/15 03:04:37;;;;;;;31.93;15.87;;;7.40;99.90;;;;;;5060492;28;20483;-71
2023/12/15 03:07:06;;;;;;;29.90;13.63;;;7.50;99.90;;;;;;5060049;28;20483;-72
2023/12/15 03:09:34;;;;;;;51.73;17.57;;;;;;;;;;5059877;28;20483;-72
2023/12/15 03:12:00;;;;;;;25.93;15.00;;;7.50;99.90;;;;;;5059725;28;20482;-71
2023/12/15 03:14:28;;;;;;;34.10;15.23;;;7.40;99.90;;;;;;5060284;28;20944;-71
2023/12/15 03:16:56;;;;;;;36.23;15.63;;;7.40;99.90;;;;;;5060281;28;20501;-72
2023/12/15 03:19:22;;;;;;;22.20;13.23;;;7.40;99.90;;;;;;5060620;28;20478;-72
2023/12/15 03:21:49;;;;;;;27.97;14.90;;;7.40;99.90;;;;;;5060070;28;20491;-71
2023/12/15 03:24:16;;;;;;;28.20;13.90;;;7.40;99.90;;;;;;5058344;28;20518;-72
2023/12/15 03:26:42;;;;;;;31.03;14.80;;;7.40;99.90;;;;;;5064641;28;21614;-72
2023/12/15 03:29:09;;;;;;;32.03;16.00;;;7.40;99.90;;;;;;5060404;28;20478;-71
2023/12/15 03:31:41;;;;;;;32.23;16.40;;;7.40;99.90;;;;;;5059948;28;20471;-72
2023/12/15 03:34:08;;;;;;;24.53;14.30;;;7.40;99.90;;;;;;5059770;28;20517;-72
2023/12/15 03:36:38;;;;;;;28.03;15.70;;;7.40;99.90;;;;;;5059882;28;20494;-72
2023/12/15 03:39:05;;;;;;;28.93;15.07;;;7.50;99.90;;;;;;5057380;28;20490;-72
2023/12/15 03:41:32;;;;;;;27.10;14.67;;;7.40;99.90;;;;;;5059015;28;20946;-71
2023/12/15 03:43:59;;;;;;;50.43;16.50;;;7.40;99.90;;;;;;5059439;28;20562;-72
2023/12/15 03:46:26;;;;;;;30.53;15.00;;;7.40;99.90;;;;;;5051559;28;20565;-72
2023/12/15 03:48:54;;;;;;;40.03;15.97;;;7.40;99.90;;;;;;5057788;28;20925;-72
2023/12/15 03:51:21;;;;;;;47.97;18.23;;;7.40;99.90;;;;;;5044628;28;20483;-72
2023/12/15 03:53:47;;;;;;;29.60;14.87;;;7.40;99.90;;;;;;5019273;28;20507;-72
2023/12/15 03:56:14;;;;;;;36.20;17.80;;;7.40;99.90;;;;;;5046933;28;20550;-72
2023/12/15 03:58:41;;;;;;;30.87;15.80;;;7.50;99.90;;;;;;5041968;28;20861;-71
2023/12/15 04:01:08;;;;;;;32.83;16.00;;;7.40;99.90;;;;;;5039953;28;20559;-71
2023/12/15 04:03:34;;;;;;;26.30;14.80;;;7.50;99.90;;;;;;5045460;28;21064;-72
2023/12/15 04:06:07;;;;;;;31.00;16.40;;;7.60;99.90;;;;;;5044350;28;20567;-72
2023/12/15 04:08:34;;;;;;;33.57;17.20;;;7.60;99.90;;;;;;5042725;28;20546;-72
2023/12/15 04:11:01;;;;;;;31.47;15.20;;;7.60;99.90;;;;;;5039337;28;20566;-72
2023/12/15 04:13:28;;;;;;;27.10;14.20;;;7.60;99.90;;;;;;5051708;28;20562;-72
2023/12/15 04:15:54;;;;;;;28.30;15.13;;;7.60;99.90;;;;;;5044465;28;20484;-71
2023/12/15 04:18:21;;;;;;;51.97;16.13;;;7.60;99.90;;;;;;5041526;28;21075;-71
2023/12/15 04:20:48;;;;;;;28.57;14.40;;;7.70;99.90;;;;;;5049893;28;20934;-71
2023/12/15 04:23:16;;;;;;;59.70;15.77;;;7.60;99.90;;;;;;5039036;28;20476;-71
2023/12/15 04:25:42;;;;;;;46.73;15.27;;;7.60;99.90;;;;;;5044833;28;20576;-71
2023/12/15 04:28:09;;;;;;;26.60;14.90;;;7.60;99.90;;;;;;5046590;28;20482;-71
2023/12/15 04:30:36;;;;;;;28.63;14.03;;;7.60;99.90;;;;;;5054620;28;20466;-71
2023/12/15 04:33:03;;;;;;;29.97;13.13;;;7.60;99.90;;;;;;5043073;28;20467;-72
2023/12/15 04:35:30;;;;;;;34.77;16.13;;;7.60;99.90;;;;;;5047078;28;20963;-72
2023/12/15 04:37:56;;;;;;;30.27;14.60;;;7.60;99.90;;;;;;5054188;28;20867;-72
2023/12/15 04:40:24;;;;;;;23.87;12.67;;;7.50;99.90;;;;;;5043861;28;20478;-72
2023/12/15 04:42:51;;;;;;;27.93;14.30;;;7.50;99.90;;;;;;5043913;28;20920;-72
2023/12/15 04:45:18;;;;;;;25.83;14.20;;;7.40;99.90;;;;;;5054918;28;20483;-72
2023/12/15 04:47:45;;;;;;;25.10;13.33;;;7.40;99.90;;;;;;5049070;28;21254;-72
2023/12/15 04:50:12;;;;;;;33.63;15.40;;;7.40;99.90;;;;;;5053818;28;20892;-72
2023/12/15 04:52:39;;;;;;;31.20;14.13;;;;;;;;;;5047767;28;21194;-72
2023/12/15 04:55:07;;;;;;;27.30;14.37;;;7.40;99.90;;;;;;5051550;28;20866;-71
2023/12/15 04:57:35;;;;;;;31.90;15.97;;;7.30;99.90;;;;;;5050807;28;20585;-72
2023/12/15 05:00:03;;;;;;;37.27;17.63;;;7.20;99.90;;;;;;5042612;28;20478;-72
2023/12/15 05:02:30;;;;;;;27.00;13.30;;;7.20;99.90;;;;;;5060384;28;20492;-72
2023/12/15 05:04:57;;;;;;;35.27;13.87;;;7.20;99.90;;;;;;5054478;28;20562;-71
2023/12/15 05:07:24;;;;;;;33.60;16.30;;;7.20;99.90;;;;;;5055941;28;20678;-72
2023/12/15 05:09:51;;;;;;;40.97;13.37;;;7.20;99.90;;;;;;5047503;28;20896;-71
2023/12/15 05:12:17;;;;;;;25.60;14.77;;;7.30;99.90;;;;;;5047963;28;21413;-72
2023/12/15 05:14:46;;;;;;;20.73;12.80;;;7.30;99.90;;;;;;5057296;28;20489;-72
2023/12/15 05:17:12;;;;;;;24.93;13.73;;;7.30;99.90;;;;;;5041249;28;20479;-72
2023/12/15 05:19:39;;;;;;;22.10;12.00;;;7.30;99.90;;;;;;5050330;28;20565;-72
2023/12/15 05:22:07;;;;;;;26.73;13.50;;;7.40;99.90;;;;;;5058095;28;20482;-72
2023/12/15 05:24:34;;;;;;;28.70;13.57;;;7.30;99.90;;;;;;5046305;28;20551;-72
2023/12/15 05:27:01;;;;;;;34.53;15.53;;;7.30;99.90;;;;;;5050907;28;20470;-72
2023/12/15 05:29:28;;;;;;;34.07;13.37;;;7.30;99.90;;;;;;5045686;28;20554;-72
2023/12/15 05:31:56;;;;;;;24.27;12.77;;;7.30;99.90;;;;;;5051933;28;20857;-72
2023/12/15 05:34:23;;;;;;;36.97;13.80;;;;;;;;;;5046129;28;20548;-72
2023/12/15 05:36:50;;;;;;;36.43;16.17;;;7.20;99.90;;;;;;5042465;28;20482;-72
2023/12/15 05:39:17;;;;;;;30.20;14.10;;;7.30;99.90;;;;;;5050588;28;20475;-72
2023/12/15 05:41:43;;;;;;;38.00;16.17;;;7.20;99.90;;;;;;5050753;28;20487;-72
2023/12/15 05:44:10;;;;;;;32.13;14.50;;;7.30;99.90;;;;;;5046764;28;20467;-72
2023/12/15 05:46:41;;;;;;;33.73;13.50;;;7.30;99.90;;;;;;5054329;28;20492;-73
2023/12/15 05:49:10;;;;;;;25.47;13.23;;;7.20;99.90;;;;;;5044478;28;20590;-72
2023/12/15 05:51:37;;;;;;;27.97;13.90;;;7.30;99.90;;;;;;5049692;28;20554;-72
2023/12/15 05:54:04;;;;;;;21.83;13.33;;;7.30;99.90;;;;;;5027665;28;20479;-72
2023/12/15 05:56:31;;;;;;;24.50;12.40;;;;;;;;;;5061934;28;20841;-73
2023/12/15 05:58:58;;;;;;;26.60;14.60;;;7.50;99.90;;;;;;5045551;28;20520;-73
2023/12/15 06:01:24;;;;;;;29.60;16.00;;;7.40;99.90;;;;;;5055456;28;20475;-73
2023/12/15 06:03:52;;;;;;;22.57;13.03;;;7.30;99.90;;;;;;5055632;28;20507;-73
2023/12/15 06:06:21;;;;;;;27.70;13.17;;;;;;;;;;5045397;28;20478;-73
2023/12/15 06:08:47;;;;;;;51.33;14.90;;;7.30;99.90;;;;;;5054375;28;20475;-73
2023/12/15 06:11:14;;;;;;;29.77;14.20;;;7.20;99.90;;;;;;5046056;28;20483;-73
2023/12/15 06:13:41;;;;;;;32.53;14.47;;;7.20;99.90;;;;;;5049486;28;20956;-73
2023/12/15 06:16:09;;;;;;;35.03;16.03;;;7.10;99.90;;;;;;5052823;28;20909;-73
2023/12/15 06:18:36;;;;;;;25.20;13.07;;;7.10;99.90;;;;;;5045387;28;20558;-73
2023/12/15 06:21:02;;;;;;;19.53;11.87;;;7.20;99.90;;;;;;5049925;28;21164;-73
2023/12/15 06:23:31;;;;;;;30.43;13.57;;;7.20;99.90;;;;;;5049149;28;20612;-73
2023/12/15 06:25:58;;;;;;;26.70;11.83;;;7.20;99.90;;;;;;5044718;28;20484;-74
2023/12/15 06:28:25;;;;;;;21.40;11.97;;;7.20;99.90;;;;;;5050717;28;20507;-74
2023/12/15 06:30:51;;;;;;;24.93;12.53;;;7.20;99.90;;;;;;5046189;28;20483;-74
2023/12/15 06:33:19;;;;;;;22.73;13.63;;;7.20;99.90;;;;;;5047923;28;20482;-73
2023/12/15 06:35:46;;;;;;;24.70;11.77;;;7.20;99.90;;;;;;5058347;28;20518;-73
2023/12/15 06:38:13;;;;;;;26.50;13.03;;;7.10;99.90;;;;;;5040750;28;20471;-73
2023/12/15 06:40:42;;;;;;;30.33;14.53;;;7.20;99.90;;;;;;5041649;28;20478;-73
2023/12/15 06:43:09;;;;;;;36.70;12.77;;;7.10;99.90;;;;;;5041042;28;20567;-73
2023/12/15 06:45:35;;;;;;;23.57;11.60;;;7.10;99.90;;;;;;5037764;28;20554;-73
2023/12/15 06:48:03;;;;;;;24.80;13.50;;;7.10;99.90;;;;;;5050964;28;20481;-73
2023/12/15 06:50:30;;;;;;;32.20;13.93;;;7.00;99.90;;;;;;5054536;28;20563;-73
2023/12/15 06:52:57;;;;;;;26.93;12.67;;;6.90;99.90;;;;;;5040915;28;20559;-74
2023/12/15 06:55:24;;;;;;;27.53;13.40;;;6.90;99.90;;;;;;5041179;28;20500;-73
2023/12/15 06:57:52;;;;;;;33.67;13.37;;;7.00;99.90;;;;;;5040069;28;20468;-74
2023/12/15 07:00:19;;;;;;;22.03;12.37;;;7.00;99.90;;;;;;5038046;28;20470;-73
2023/12/15 07:02:46;;;;;;;30.50;12.43;;;7.00;99.90;;;;;;5061340;28;20479;-73
2023/12/15 07:05:12;;;;;;;30.63;13.07;;;7.00;99.90;;;;;;5043523;28;20904;-73
2023/12/15 07:07:39;;;;;;;21.43;10.43;;;7.00;99.90;;;;;;5044509;28;20480;-72
2023/12/15 07:10:07;;;;;;;24.10;10.97;;;7.00;99.90;;;;;;5052405;28;20477;-73
2023/12/15 07:12:34;;;;;;;34.30;14.37;;;6.90;99.90;;;;;;5060772;28;20574;-73
2023/12/15 07:15:02;;;;;;;20.53;12.93;;;6.80;99.90;;;;;;5060654;28;20483;-73
2023/12/15 07:17:29;;;;;;;45.33;13.80;;;6.70;99.90;;;;;;5060054;28;20602;-73
2023/12/15 07:19:55;;;;;;;32.53;13.23;;;6.70;99.90;;;;;;5060242;28;20485;-73
2023/12/15 07:22:23;;;;;;;29.43;13.03;;;;;;;;;;5060544;28;20597;-72
2023/12/15 07:24:49;;;;;;;23.33;11.87;;;6.70;99.90;;;;;;5057538;28;20482;-73
2023/12/15 07:27:16;;;;;;;24.93;11.33;;;6.70;99.90;;;;;;5055394;28;20522;-73
2023/12/15 07:29:43;;;;;;;20.03;10.87;;;6.70;99.90;;;;;;5059586;28;20855;-73
2023/12/15 07:32:11;;;;;;;28.70;11.20;;;6.80;99.90;;;;;;5060365;28;21050;-73
2023/12/15 07:34:38;;;;;;;19.93;8.90;;;6.80;99.90;;;;;;5060288;28;20542;-72
2023/12/15 07:37:04;;;;;;;13.43;8.47;;;6.80;99.90;;;;;;5057402;28;21024;-73
2023/12/15 07:39:32;;;;;;;21.40;10.37;;;7.00;99.90;;;;;;5059254;28;20489;-73
2023/12/15 07:42:00;;;;;;;22.03;11.10;;;6.90;99.90;;;;;;5057324;28;20544;-73
2023/12/15 07:44:27;;;;;;;22.70;11.17;;;7.00;99.90;;;;;;5058483;28;21025;-73
2023/12/15 07:46:55;;;;;;;20.30;10.23;;;6.90;99.90;;;;;;5058673;28;21242;-73
2023/12/15 07:49:24;;;;;;;13.80;8.97;;;6.90;99.90;;;;;;5060528;28;20658;-73
2023/12/15 07:51:52;;;;;;;32.17;12.60;;;6.80;99.90;;;;;;5059454;28;20483;-72
2023/12/15 07:54:19;;;;;;;19.87;11.00;;;6.90;99.90;;;;;;5057940;28;20477;-72
2023/12/15 07:56:45;;;;;;;27.63;11.33;;;6.90;99.90;;;;;;5060533;28;20926;-71
2023/12/15 07:59:13;;;;;;;27.47;11.00;;;6.80;99.90;;;;;;5057384;28;20493;-72
2023/12/15 08:01:40;;;;;;;15.30;7.43;;;6.80;99.90;;;;;;5059486;28;20467;-71
2023/12/15 08:04:06;;;;;;;15.93;10.67;;;6.90;99.90;;;;;;5059383;28;20554;-71
2023/12/15 08:06:37;;;;;;;18.63;9.00;;;6.90;99.90;;;;;;5060395;28;20587;-72
2023/12/15 08:09:04;;;;;;;19.83;9.80;;;6.90;99.90;;;;;;5058592;28;20487;-73
2023/12/15 08:11:32;;;;;;;19.27;10.97;;;7.00;99.90;;;;;;5058411;28;20494;-72
2023/12/15 08:13:59;;;;;;;20.70;12.03;;;7.00;99.90;;;;;;5057770;28;21032;-72
2023/12/15 08:16:26;;;;;;;23.37;10.23;;;7.00;99.90;;;;;;5058810;28;20483;-72
2023/12/15 08:18:53;;;;;;;28.23;12.87;;;7.00;99.90;;;;;;5058228;28;20566;-72
2023/12/15 08:21:19;;;;;;;20.33;9.63;;;6.90;99.90;;;;;;5059991;28;21025;-71
2023/12/15 08:23:47;;;;;;;19.70;11.80;;;6.80;99.90;;;;;;5061949;28;20487;-71
2023/12/15 08:26:20;;;;;;;39.03;13.10;;;6.80;99.90;;;;;;5064229;28;20844;-72
2023/12/15 08:28:47;;;;;;;23.43;9.80;;;6.90;99.90;;;;;;5061798;28;20558;-72
2023/12/15 08:31:14;;;;;;;16.60;9.00;;;6.90;99.90;;;;;;5063747;28;21082;-72
2023/12/15 08:33:40;;;;;;;14.57;8.70;;;7.00;99.90;;;;;;5061514;28;20528;-71
2023/12/15 08:36:09;;;;;;;43.87;11.37;;;7.10;99.90;;;;;;5062128;28;20489;-73
2023/12/15 08:38:36;;;;;;;68.50;13.10;;;7.00;99.90;;;;;;5061687;28;20486;-72
2023/12/15 08:41:05;;;;;;;26.43;11.30;;;7.10;99.90;;;;;;5059304;28;20497;-72
2023/12/15 08:43:32;;;;;;;23.87;8.93;;;7.20;99.90;;;;;;5063365;28;20488;-72
2023/12/15 08:45:59;;;;;;;17.80;8.87;;;7.20;99.90;;;;;;5061453;28;21096;-72
2023/12/15 08:48:26;;;;;;;20.40;9.33;;;7.30;99.90;;;;;;5034627;28;20971;-73
2023/12/15 08:50:53;;;;;;;19.40;12.37;;;7.30;99.90;;;;;;5074560;28;20608;-71
2023/12/15 08:53:19;;;;;;;21.83;9.70;;;7.30;99.90;;;;;;5062762;28;20505;-73
2023/12/15 08:55:47;;;;;;;28.67;9.17;;;;;;;;;;5063905;28;20481;-72
2023/12/15 08:58:15;;;;;;;19.23;9.40;;;7.40;99.90;;;;;;5061858;28;20877;-72
2023/12/15 09:00:42;;;;;;;36.97;10.80;;;7.50;99.90;;;;;;5062588;28;20477;-72
2023/12/15 09:03:09;;;;;;;15.83;8.60;;;7.50;99.90;;;;;;5062836;28;21022;-72
2023/12/15 09:05:36;;;;;;;21.63;11.20;;;7.50;99.90;;;;;;5063263;28;20473;-72
2023/12/15 09:08:03;;;;;;;31.50;13.93;;;7.50;99.90;;;;;;5061296;28;20486;-72
2023/12/15 09:10:33;;;;;;;22.27;12.60;;;7.50;99.90;;;;;;5062095;28;20473;-73
2023/12/15 09:13:02;;;;;;;22.70;11.73;;;7.50;99.90;;;;;;5063213;28;20568;-72
2023/12/15 09:15:30;;;;;;;31.10;14.60;;;7.60;99.90;;;;;;5061096;28;20731;-72
2023/12/15 09:17:57;;;;;;;26.03;14.73;;;7.60;99.90;;;;;;5060305;28;20493;-72
2023/12/15 09:20:24;;;;;;;24.10;12.37;;;7.50;99.90;;;;;;5062637;28;20998;-71
2023/12/15 09:22:51;;;;;;;28.77;15.57;;;7.60;99.90;;;;;;5061598;28;20490;-72
2023/12/15 09:25:18;;;;;;;18.03;11.57;;;7.60;99.90;;;;;;5061614;28;20544;-72
2023/12/15 09:27:45;;;;;;;25.87;14.63;;;7.60;99.90;;;;;;5062549;28;20881;-72
2023/12/15 09:30:12;;;;;;;25.47;14.40;;;;;;;;;;5058170;28;20487;-72
2023/12/15 09:32:40;;;;;;;30.07;15.40;;;7.60;99.90;;;;;;5060338;28;20475;-72
2023/12/15 09:35:07;;;;;;;40.07;17.30;;;7.50;99.90;;;;;;5059467;28;20489;-72
2023/12/15 09:37:34;;;;;;;24.13;13.57;;;7.50;99.90;;;;;;5062824;28;20882;-71
2023/12/15 09:40:01;;;;;;;34.43;12.90;;;7.50;99.90;;;;;;5061804;28;20945;-71
2023/12/15 09:42:27;;;;;;;26.60;11.87;;;7.60;99.90;;;;;;5051615;28;20497;-71
2023/12/15 09:44:54;;;;;;;30.80;12.80;;;7.60;99.90;;;;;;5053595;28;20481;-71
2023/12/15 09:47:22;;;;;;;17.27;11.60;;;7.60;99.90;;;;;;5059150;28;20566;-71
2023/12/15 09:49:53;;;;;;;23.67;10.83;;;7.70;99.90;;;;;;5066935;28;20864;-70
2023/12/15 09:52:22;;;;;;;25.00;12.10;;;7.70;99.90;;;;;;5050823;28;20462;-71
2023/12/15 09:54:50;;;;;;;22.17;11.10;;;7.70;99.90;;;;;;5063180;28;20546;-72
2023/12/15 09:57:18;;;;;;;32.80;10.80;;;7.70;99.90;;;;;;5060943;28;20552;-72
2023/12/15 09:59:45;;;;;;;26.23;11.73;;;7.70;99.90;;;;;;5060926;28;20479;-72
2023/12/15 10:02:11;;;;;;;21.43;12.00;;;7.80;99.90;;;;;;5060723;28;20527;-73
2023/12/15 10:04:38;;;;;;;31.17;12.60;;;8.00;99.90;;;;;;5063415;28;20475;-72
2023/12/15 10:07:06;;;;;;;26.23;10.67;;;8.00;99.90;;;;;;5060974;28;20478;-73
2023/12/15 10:09:33;;;;;;;42.17;12.83;;;;;;;;;;5059816;28;20487;-72
2023/12/15 10:12:00;;;;;;;27.43;12.30;;;7.90;99.90;;;;;;5061117;28;20814;-71
2023/12/15 10:14:27;;;;;;;26.63;11.40;;;7.90;99.90;;;;;;5061242;28;20838;-73
2023/12/15 10:16:54;;;;;;;23.87;10.67;;;8.00;99.90;;;;;;5061510;28;20489;-72
2023/12/15 10:19:25;;;;;;;25.97;10.90;;;8.00;99.90;;;;;;5062235;28;20477;-72
2023/12/15 10:21:52;;;;;;;20.30;10.20;;;8.10;99.90;;;;;;5061367;28;20903;-72
2023/12/15 10:24:22;;;;;;;21.80;8.13;;;8.00;99.90;;;;;;5065478;28;20473;-71
2023/12/15 10:26:49;;;;;;;24.70;11.43;;;7.90;99.90;;;;;;5061491;28;20471;-72
2023/12/15 10:29:18;;;;;;;14.10;8.10;;;8.00;99.90;;;;;;5060369;28;20483;-71
2023/12/15 10:31:46;;;;;;;18.73;9.93;;;8.00;99.90;;;;;;5061826;28;20994;-72
2023/12/15 10:34:14;;;;;;;26.27;11.50;;;8.00;99.90;;;;;;5060825;28;20485;-71
2023/12/15 10:36:44;;;;;;;16.20;9.57;;;8.00;99.90;;;;;;5060115;28;20522;-72
2023/12/15 10:39:14;;;;;;;16.03;11.07;;;8.00;99.90;;;;;;5060358;28;21039;-72
2023/12/15 10:41:43;;;;;;;16.77;10.13;;;8.10;99.90;;;;;;5060836;28;20638;-72
2023/12/15 10:44:12;;;;;;;29.40;11.47;;;8.00;99.90;;;;;;5059204;28;20489;-71
2023/12/15 10:46:42;;;;;;;19.13;11.60;;;8.00;99.90;;;;;;5060099;28;20499;-72
2023/12/15 10:49:10;;;;;;;20.37;11.93;;;8.10;99.90;;;;;;5058811;28;21773;-71
2023/12/15 10:51:38;;;;;;;19.03;9.83;;;8.00;99.90;;;;;;5060265;28;20474;-70
2023/12/15 10:54:07;;;;;;;14.53;6.43;;;8.00;99.90;;;;;;5064384;28;20493;-70
2023/12/15 10:56:34;;;;;;;18.73;11.53;;;8.00;99.90;;;;;;5059435;28;20562;-72
2023/12/15 10:59:02;;;;;;;29.40;11.47;;;8.10;99.90;;;;;;5058222;28;20479;-70
2023/12/15 11:01:30;;;;;;;18.10;9.90;;;8.20;99.90;;;;;;5060721;28;20502;-72
2023/12/15 11:03:57;;;;;;;14.60;10.00;;;8.20;99.90;;;;;;5056113;28;20481;-72
2023/12/15 11:06:27;;;;;;;18.70;9.47;;;8.20;99.90;;;;;;5061315;28;20596;-72
2023/12/15 11:09:00;;;;;;;22.23;10.30;;;8.30;99.90;;;;;;5048925;28;21047;-71
2023/12/15 11:11:29;;;;;;;33.00;9.80;;;8.20;99.90;;;;;;5044592;28;20475;-71
2023/12/15 11:14:01;;;;;;;23.60;11.80;;;8.30;99.90;;;;;;5059247;28;20581;-72
2023/12/15 11:16:31;;;;;;;19.63;10.93;;;8.20;99.90;;;;;;5039235;28;20472;-70
2023/12/15 11:18:59;;;;;;;20.83;9.83;;;8.10;99.90;;;;;;5034903;28;21218;-71
2023/12/15 11:21:26;;;;;;;22.67;11.43;;;8.10;99.90;;;;;;5047581;28;20846;-71
2023/12/15 11:23:57;;;;;;;20.93;9.90;;;;;;;;;;5041816;28;20555;-71
2023/12/15 11:26:28;;;;;;;28.20;12.53;;;8.10;99.90;;;;;;5031396;28;20996;-72
2023/12/15 11:29:02;;;;;;;17.70;7.33;;;8.10;99.90;;;;;;5036990;28;20479;-71
2023/12/15 11:31:33;;;;;;;26.40;11.40;;;8.20;99.90;;;;;;5050027;28;20469;-73
2023/12/15 11:34:01;;;;;;;24.80;10.70;;;8.30;99.90;;;;;;5056289;28;20471;-72
2023/12/15 11:36:30;;;;;;;31.07;13.33;;;8.30;99.90;;;;;;5061452;28;20853;-71
2023/12/15 11:38:59;;;;;;;30.27;11.73;;;8.40;99.90;;;;;;5064494;28;20880;-72
2023/12/15 11:41:26;;;;;;;19.50;10.60;;;8.40;99.90;;;;;;5029058;28;20547;-72
2023/12/15 11:43:53;;;;;;;18.63;9.37;;;8.50;99.90;;;;;;5039527;28;20483;-72
2023/12/15 11:46:25;;;;;;;17.17;10.57;;;8.40;99.90;;;;;;5040754;28;20486;-72
2023/12/15 11:48:53;;;;;;;9.77;7.50;;;8.40;99.90;;;;;;5040046;28;20838;-71
2023/12/15 11:51:25;;;;;;;18.43;10.47;;;8.30;99.90;;;;;;5038285;28;20475;-72
2023/12/15 11:53:52;;;;;;;26.10;9.17;;;8.50;99.90;;;;;;5034150;28;25535;-72
2023/12/15 11:56:18;;;;;;;15.57;8.90;;;8.60;99.90;;;;;;5051561;28;21051;-72
2023/12/15 11:58:47;;;;;;;20.10;10.23;;;8.70;99.90;;;;;;5049940;28;20537;-72
2023/12/15 12:01:15;;;;;;;29.03;8.60;;;8.80;99.90;;;;;;5035243;28;21018;-72
2023/12/15 12:03:43;;;;;;;12.17;6.87;;;8.90;99.90;;;;;;5038602;28;20476;-72
2023/12/15 12:06:11;;;;;;;13.50;7.57;;;8.90;99.90;;;;;;5038395;28;21189;-72
2023/12/15 12:08:39;;;;;;;20.13;8.13;;;9.00;99.90;;;;;;5037467;28;20475;-71
2023/12/15 12:11:06;;;;;;;18.03;7.53;;;8.90;99.90;;;;;;5039591;28;21299;-72
2023/12/15 12:13:35;;;;;;;17.90;7.40;;;8.90;99.90;;;;;;5039154;28;20570;-72
2023/12/15 12:16:02;;;;;;;13.10;7.50;;;9.00;99.90;;;;;;5036132;28;20528;-72
2023/12/15 12:18:30;;;;;;;12.27;6.90;;;8.90;99.90;;;;;;5035358;28;21279;-71
2023/12/15 12:20:58;;;;;;;23.67;7.50;;;8.80;99.90;;;;;;5039064;28;20546;-72
2023/12/15 12:23:28;;;;;;;12.60;9.60;;;8.90;99.90;;;;;;5039913;28;20467;-72
2023/12/15 12:25:56;;;;;;;9.17;5.83;;;8.90;99.90;;;;;;5047479;28;20574;-72
2023/12/15 12:28:23;;;;;;;9.70;6.13;;;9.00;99.90;;;;;;5045299;28;20475;-71
2023/12/15 12:30:50;;;;;;;8.07;6.40;;;8.90;99.90;;;;;;5040635;28;20848;-72
2023/12/15 12:33:18;;;;;;;13.57;7.23;;;8.90;99.90;;;;;;5038734;28;20574;-73
2023/12/15 12:35:45;;;;;;;13.90;6.30;;;8.90;99.90;;;;;;5039210;28;20853;-73
2023/12/15 12:38:12;;;;;;;8.53;5.83;;;8.90;99.90;;;;;;5040849;28;20594;-72
2023/12/15 12:40:40;;;;;;;15.13;6.63;;;8.80;99.90;;;;;;5039440;28;20859;-72
2023/12/15 12:43:07;;;;;;;12.57;5.40;;;8.80;99.90;;;;;;5054780;28;20842;-72